Wolf, WY (82844)

7:19 AM MDT on October 01, 2014 (GMT -0600)
KWYSHERI2 | Change Station
CLOSE
Current Station
Personal Weather Station
Location: Sheridan, WY
Elevation: 3828 ft
Nearby Weather Stations

Elev 3828 ft 44.81 °N, 106.98 °W | Updated 7 minutes ago

Overcast
Overcast
47.0 °F
Feels Like 47 °F
N
0.0
Wind Variable Wind from West
Gusts 0.0 mph

Today
High -- | Low -- °F
--% Chance of Precip.
Yesterday
High -- | Low -- °F
Precip. -- in
7:06 AM 6:49 PM
Waxing Crescent, 47% visible
Pressure 29.89 in
Visibility 10.0 miles
Clouds Mostly Cloudy 4200 ft
Mostly Cloudy 4900 ft
Overcast 7000 ft
Windchill 47 °F
Dew Point 42 °F
Humidity 81%
Rainfall 0.00 in
Snow Depth 1 in , 1 in , 0 in
UV out of 12
Pollen 3.40 out of 12
Air Quality Not available.
Flu Activity Not available.
METAR KSHR 011253Z AUTO 32006KT 10SM BKN042 BKN049 OVC070 08/05 A2991 RMK AO2 SLP122 T00830050

More Conditions Fewer Conditions

Pressure 29.89 in
Visibility 10.0 miles
Clouds Mostly Cloudy 4200 ft
Mostly Cloudy 4900 ft
Overcast 7000 ft
Windchill 47 °F
Dew Point 42 °F
Humidity 81%
Rainfall 0.00 in
Snow Depth 1 in , 1 in , 0 in
UV out of 12
Pollen 3.40 out of 12
Air Quality Not available.
Flu Activity Not available.
METAR KSHR 011253Z AUTO 32006KT 10SM BKN042 BKN049 OVC070 08/05 A2991 RMK AO2 SLP122 T00830050

More Conditions Fewer Conditions

10-Day Weather Forecast

Almanac

Astronomy

Oct. 01, 2014 Rise Set
Actual Time 7:06 AM MDT 6:49 PM MDT
Civil Twilight 6:37 AM MDT 7:18 PM MDT
Nautical Twilight 6:03 AM MDT 7:52 PM MDT
Astronomical Twilight 5:29 AM MDT 8:26 PM MDT
Moon 2:21 PM MDT No Moon Set
Length of Visible Light 12h 40m
Length of Day
11h 42m
Tomorrow will be 3m 5s shorter.
Waxing Crescent, 47% of the Moon is Illuminated
Today
Waxing Crescent
Oct 1
First Quarter
Oct 8
Full
Oct 15
Last Quarter
Oct 23
New

Today's Extremes

State Highs State Lows

Community

WunderPhotos

Upload Photos

1,757,925 photos uploaded!

Nearby

Snow Depth

Station Depth Elevation
Kelley R.S. 1 in 8180 ft
Little Warm 1 in 9370 ft
Casper Mountain 0 in 7850 ft
Middle Powder 0 in 7760 ft
Granite Creek 0 in 6770 ft

Earthquake Activity

City Distance Mag. Time & Date
No recent earthquake activity has been reported nearby.
Minimum magnitude displayed is 2.5.

Coastal Water Temperatures

Place Temperature
No Stations Reporting

Nearby Weather Stations